Home > Products > Valid Products > TAF

000
FTUS44 KBMX 240500
TAFMGM
TAF
KMGM 240531Z 2406/2506 21008KT 6SM BR OVC015
     FM241600 25012KT P6SM BKN025 BKN050
     FM241900 27009KT P6SM SCT100 BKN250
     FM250000 30005KT P6SM SCT250=



000
FTUS44 KBMX 240500
TAFANB
TAF
KANB 240531Z 2406/2506 21007KT 4SM BR BKN025 OVC035
     FM240800 21010KT 6SM BR OVC015
      TEMPO 2410/2414 4SM BR OVC008
     FM241900 25014KT P6SM SCT020 BKN100
     FM242300 30006KT P6SM OVC250=



000
FTUS44 KBMX 240500
TAFBHM
TAF
KBHM 240531Z 2406/2506 19010KT P6SM BKN020 OVC035
     FM240800 21010KT 6SM BR OVC015
      TEMPO 2410/2414 4SM BR OVC008
     FM241900 25014KT P6SM SCT020 BKN100
     FM242300 30006KT P6SM OVC250=



000
FTUS44 KBMX 240500
TAFTCL
TAF
KTCL 240531Z 2406/2506 19010KT 6SM BR SCT015 BKN035
      TEMPO 2407/2408 BKN015
     FM240800 21010KT 4SM BR SCT007 BKN015
     FM241500 24011KT P6SM OVC020
     FM241800 27012KT P6SM SCT100
     FM250000 31004KT P6SM SCT250=



000
FTUS44 KBMX 240500
TAFEET
TAF
KEET 240531Z 2406/2506 20006KT 4SM BR SCT007 OVC015
      TEMPO 2410/2414 4SM BR OVC008
     FM241800 25014KT P6SM OVC025
     FM242000 27014KT P6SM SCT020 BKN100
     FM242300 30006KT P6SM OVC250=



000
FTUS44 KBMX 240500
TAFTOI
TAF
KTOI 240531Z 2406/2506 20006KT 6SM BR BKN015 OVC025
      TEMPO 2410/2414 4SM BR BKN007
     FM241600 25012KT P6SM BKN025
     FM242000 27009KT P6SM SCT100
     FM250100 31004KT P6SM SCT250=



000
FTUS44 KBMX 240100 AAA
TAFTOI
TAF AMD
KTOI 240101Z 2401/2424 19010KT P6SM BKN015 BKN035
     FM240500 20006KT 4SM BR OVC010
      TEMPO 2410/2414 BKN007
     FM241500 25012KT P6SM BKN025
     FM241800 27009KT P6SM SCT100=



000
FTUS44 KBMX 240100 AAA
TAFANB
TAF AMD
KANB 240101Z 2401/2424 21010KT P6SM BKN025 OVC040
      TEMPO 2402/2405 BKN015
     FM240500 21007KT 4SM BR SCT007 OVC015
     FM241500 24012KT P6SM OVC020
     FM241800 27014KT P6SM SCT020 BKN100=



000
FTUS44 KBMX 240100 AAA
TAFEET
TAF AMD
KEET 240100Z 2401/2424 18010KT P6SM BKN015 OVC035
     FM240600 20006KT 4SM BR SCT007 OVC015
     FM241500 25014KT P6SM OVC025
     FM241800 27014KT P6SM SCT020 BKN100=



000
FTUS44 KBMX 240000 AAA
TAFBHM
TAF AMD
KBHM 240059Z 2401/2424 19012G20KT P6SM BKN025 OVC035
     FM240600 21010KT 6SM BR OVC015
     FM241800 25014KT P6SM SCT020 BKN100=



000
FTUS44 KBMX 232300 CCA
TAFTCL
TAF COR
KTCL 232322Z 2400/2424 18012KT P6SM SCT025 BKN050
     FM240500 21007KT 4SM BR SCT007 OVC015
     FM241500 24011KT P6SM OVC020
     FM241800 27012KT P6SM SCT020 BKN100=



000
FTUS44 KBMX 232300
TAFANB
TAF
KANB 232320Z 2400/2424 21010KT P6SM SCT025 BKN040
     FM240500 21007KT 4SM BR SCT007 OVC015
     FM241500 24012KT P6SM OVC020
     FM241800 27014KT P6SM SCT020 BKN100=



000
FTUS44 KBMX 232300
TAFMGM
TAF
KMGM 232320Z 2400/2424 20010KT P6SM SCT025 BKN050
     FM240500 20007KT 4SM BR OVC015
     FM241500 25012KT P6SM BKN025
     FM241800 27009KT P6SM SCT100=



000
FTUS44 KBMX 232300
TAFBHM
TAF
KBHM 232320Z 2400/2424 19012G20KT P6SM SCT025 BKN050
     FM240600 21010KT 6SM BR OVC015
     FM241800 25014KT P6SM SCT020 BKN100=



000
FTUS44 KBMX 232300
TAFTCL
TAF
KTCL 232320Z 2400/2424 18012G23KT P6SM SCT025 BKN050
     FM240500 21007KT 4SM BR SCT007 OVC015
     FM241500 24011KT P6SM OVC020
     FM241800 27012KT P6SM SCT020 BKN100=



000
FTUS44 KBMX 232300
TAFTOI
TAF
KTOI 232320Z 2400/2424 19010KT P6SM BKN025 BKN035
     FM240500 20006KT 4SM BR OVC010
      TEMPO 2411/2414 BKN007
     FM241500 25012KT P6SM BKN025
     FM241800 27009KT P6SM SCT100=



000
FTUS44 KBMX 232300
TAFEET
TAF
KEET 232320Z 2400/2424 18008KT P6SM SCT025 BKN050
     FM240600 20006KT 4SM BR SCT007 OVC015
     FM241500 25014KT P6SM OVC025
     FM241800 27014KT P6SM SCT020 BKN100=



000
FTUS44 KBMX 232100 AAA
TAFANB
TAF AMD
KANB 232108Z 2321/2418 05006KT 6SM -RA BR SCT024 OVC100
     FM232200 15008KT P6SM SCT025 BKN040
     FM240100 21009KT P6SM SCT025 BKN040
     FM240300 21007KT 4SM BR OVC010
     FM241500 24015KT P6SM OVC020=



000
FTUS44 KBMX 232100 AAA
TAFTOI
TAF AMD
KTOI 232103Z 2321/2418 20011KT P6SM BKN110
     FM232230 19010KT P6SM BKN025 BKN035
     FM240400 20006KT 4SM BR OVC010
     FM241400 25012KT P6SM BKN020=



000
FTUS44 KBMX 232100 AAA
TAFMGM
TAF AMD
KMGM 232102Z 2321/2418 19010G18KT P6SM SCT110
     FM232200 20010KT P6SM BKN025 BKN035
     FM240500 20007KT 4SM BR OVC015
     FM241400 25012KT P6SM BKN020=



000
FTUS44 KBMX 232000 AAA
TAFEET
TAF AMD
KEET 232052Z 2321/2418 16004KT P6SM SCT014 BKN070 OVC100
     FM232200 18008KT P6SM BKN025 BKN035
     FM240300 20006KT 4SM BR OVC010
     FM241500 25014KT P6SM OVC020=



000
FTUS44 KBMX 232000 AAA
TAFBHM
TAF AMD
KBHM 232044Z 2321/2418 13005KT P6SM SCT014 BKN040 OVC070
     FM232200 19014G20KT P6SM BKN025 BKN035
     FM240400 20010KT 4SM BR OVC010
     FM241500 25014KT P6SM OVC020=



000
FTUS44 KBMX 232000 AAA
TAFTCL
TAF AMD
KTCL 232035Z 2321/2418 17012G20KT P6SM BKN110
     FM232130 18012G23KT P6SM BKN020 OVC030
     FM240400 19009KT 4SM BR OVC010
     FM241400 26012KT P6SM BKN020=



000
FTUS44 KBMX 231700 RRA
TAFTCL
TAF
KTCL 231742Z 2318/2418 12012G18KT 3SM SHRA VCTS OVC007CB
      TEMPO 2318/2321 1SM +TSRA
     FM232100 18012G23KT P6SM SCT010 BKN030
     FM240300 20010KT 4SM BR OVC010
     FM241400 26012KT P6SM BKN020=



000
FTUS44 KBMX 231700 RRA
TAFANB
TAF
KANB 231742Z 2318/2418 05009KT 4SM SHRA BR OVC006
      TEMPO 2319/2323 13010G20KT 2SM TSRA OVC006CB
     FM232300 15010G18KT P6SM OVC010
     FM240300 23008KT 4SM BR OVC010
     FM241500 24015KT P6SM OVC020=



000
FTUS44 KBMX 231700 RRA
TAFBHM
TAF
KBHM 231742Z 2318/2418 10010KT 4SM SHRA VCTS BKN014CB OVC030
      TEMPO 2319/2322 1SM TSRA OVC006CB
     FM232200 18014G20KT P6SM OVC015
     FM240300 20010KT 4SM BR OVC010
     FM241500 25014KT P6SM OVC020=



000
FTUS44 KBMX 231700 RRA
TAFMGM
TAF
KMGM 231742Z 2318/2418 10012G20KT 5SM SHRA VCTS BKN005CB OVC010
      TEMPO 2318/2322 19015G25KT 1SM +TSRA OVC010CB
     FM232200 19010KT P6SM BKN010 OVC030
     FM240600 20007KT 4SM BR OVC015
     FM241400 25012KT P6SM BKN020=



000
FTUS44 KBMX 231700 RRA
TAFEET
TAF
KEET 231742Z 2318/2418 12010G18KT 3SM SHRA BR VCTS OVC004CB
      TEMPO 2318/2322 1SM +TSRA OVC010CB
     FM232200 18012G23KT P6SM OVC015
     FM240300 20010KT 4SM BR OVC010
     FM241500 25014KT P6SM OVC020=



000
FTUS44 KBMX 231700 RRA
TAFTOI
TAF
KTOI 231742Z 2318/2418 16010G20KT 5SM SHRA VCTS OVC006CB
      TEMPO 2318/2322 19015G25KT 1SM +TSRA OVC010CB
     FM232200 18010KT P6SM BKN010 OVC030
     FM240400 20007KT 4SM BR OVC010
     FM241400 25012KT P6SM BKN020=



000
FTUS44 KBMX 231500 AAC
TAFTOI
TAF AMD
KTOI 231549Z 2316/2412 12008G18KT 4SM -SHRA VCTS OVC005CB
      TEMPO 2316/2318 2SM TSRA
     FM231800 15012G20KT 3SM SHRA VCTS OVC008CB
      TEMPO 2318/2322 1SM +TSRA OVC005CB
     FM232200 18010KT 5SM SHRA VCTS BKN025CB=



000
FTUS44 KBMX 231500 AAC
TAFTOI
TAF AMD
KTOI 231549Z 2316/2412 12008G18KT 4SM -SHRA VCTS OVC005CB
      TEMPO 2316/2318 2SM TSRA
     FM231800 15012G20KT 3SM SHRA VCTS OVC008CB
      TEMPO 2318/2322 1SM +TSRA OVC005CB
     FM232200 18010KT 5SM SHRA VCTS BKN025CB=



000
FTUS44 KBMX 231500 AAA
TAFMGM
TAF AMD
KMGM 231548Z 2316/2412 12012G18KT 4SM -SHRA VCTS OVC005CB
     FM231800 15012G20KT 4SM SHRA VCTS OVC008CB
      TEMPO 2318/2322 2SM TSRA
     FM232200 19010KT P6SM VCSH BKN025=



000
FTUS44 KBMX 231500 AAA
TAFMGM
TAF AMD
KMGM 231548Z 2316/2412 12012G18KT 4SM -SHRA VCTS OVC005CB
     FM231800 15012G20KT 4SM SHRA VCTS OVC008CB
      TEMPO 2318/2322 2SM TSRA
     FM232200 19010KT P6SM VCSH BKN025=



000
FTUS44 KBMX 231500 AAB
TAFTCL
TAF AMD
KTCL 231544Z 2316/2412 12008G18KT 5SM -RA BR OVC008
      TEMPO 2316/2318 3SM -SHRA
     FM231800 12012G18KT 3SM -SHRA VCTS OVC008CB
      TEMPO 2318/2322 1SM TSRA
     FM232200 18012G20KT P6SM VCSH BKN015=



000
FTUS44 KBMX 231500 AAB
TAFANB
TAF AMD
KANB 231542Z 2316/2412 08008G18KT 4SM BR VCSH OVC008
      TEMPO 2316/2320 2SM SHRA
     FM232000 15010G18KT 4SM SHRA VCTS OVC015CB
      TEMPO 2320/2323 2SM TSRA
     FM240100 19010KT P6SM VCSH BKN025=



000
FTUS44 KBMX 231500 AAC
TAFEET
TAF AMD
KEET 231541Z 2316/2412 10007KT 3SM -RA BR OVC005
     FM231800 13010G18KT 3SM -SHRA VCTS OVC008CB
      TEMPO 2318/2322 1SM TSRA OVC010CB
     FM232200 18010G18KT P6SM VCSH BKN015=



000
FTUS44 KBMX 231500 AAC
TAFEET
TAF AMD
KEET 231541Z 2316/2412 10007KT 3SM -RA BR OVC005
     FM231800 13010G18KT 3SM -SHRA VCTS OVC008CB
      TEMPO 2318/2322 1SM TSRA OVC010CB
     FM232200 18010G18KT P6SM VCSH BKN015=



000
FTUS44 KBMX 231500 AAD
TAFBHM
TAF AMD
KBHM 231540Z 2316/2412 12010G18KT 5SM -RA BR OVC008
     FM231800 13012G18KT 5SM -SHRA VCTS OVC010CB
      TEMPO 2319/2322 2SM TSRA OVC010CB
     FM232200 18012G20KT P6SM VCSH BKN015=



000
FTUS44 KBMX 231500 AAC
TAFBHM
TAF AMD
KBHM 231532Z 2316/2412 12010G18KT 5SM -RA BR OVC008
     FM231800 13012G18KT 5SM -SHRA VCTS OVC012CB
      TEMPO 2319/2322 2SM TSRA OVC010CB
     FM232200 18012G20KT P6SM VCSH BKN015=



000
FTUS44 KBMX 231500 AAB
TAFTOI
TAF AMD
KTOI 231529Z 2315/2412 12008G18KT 4SM -SHRA VCTS OVC005CB
      TEMPO 2316/2318 2SM TSRA
     FM231800 15012G20KT 3SM SHRA VCTS OVC015CB
      TEMPO 2318/2322 1SM +TSRA OVC005CB
     FM232200 18010KT 5SM SHRA VCTS BKN025CB=



000
FTUS44 KBMX 231400 AAA
TAFTOI
TAF AMD
KTOI 231421Z 2314/2412 12008G18KT 4SM -SHRA OVC005
      TEMPO 2314/2317 2SM SHRA
     FM231700 15012G20KT 3SM SHRA VCTS OVC015CB
      TEMPO 2318/2321 1SM +TSRA OVC005CB
     FM232100 18010KT 5SM SHRA VCTS BKN025CB=



000
FTUS44 KBMX 231400 AAA
TAFTCL
TAF AMD
KTCL 231418Z 2314/2412 12008KT 5SM BR OVC008
      TEMPO 2316/2318 3SM -SHRA
     FM231800 12012G18KT 5SM -SHRA OVC015
      TEMPO 2319/2322 2SM TSRA OVC010CB
     FM232200 18012G20KT P6SM VCSH BKN015=



000
FTUS44 KBMX 231400 AAB
TAFBHM
TAF AMD
KBHM 231417Z 2314/2412 10010G18KT 3SM -RA BR OVC008
     FM231800 13012G18KT 5SM -SHRA OVC015
      TEMPO 2319/2322 2SM TSRA OVC010CB
     FM232200 18012G20KT P6SM VCSH BKN015=



000
FTUS44 KBMX 231400 AAB
TAFEET
TAF AMD
KEET 231416Z 2314/2412 10007KT 2SM -RA BR OVC005
     FM231800 13010G18KT 4SM -SHRA OVC015
      TEMPO 2319/2322 2SM TSRA OVC010CB
     FM232200 18010G18KT P6SM VCSH BKN015=



000
FTUS44 KBMX 231300 AAA
TAFANB
TAF AMD
KANB 231319Z 2313/2412 08008G18KT 4SM BR VCSH OVC008
      TEMPO 2314/2318 2SM -SHRA
     FM231800 12010G18KT 5SM SHRA OVC012
     FM232000 15010G18KT 4SM SHRA VCTS OVC015CB
      TEMPO 2320/2323 2SM TSRA
     FM240100 19010KT P6SM VCSH BKN025=



000
FTUS44 KBMX 231300 AAA
TAFBHM
TAF AMD
KBHM 231317Z 2313/2412 10010G18KT 4SM BR VCSH OVC008
      TEMPO 2315/2318 3SM -SHRA
     FM231800 13012G18KT 5SM SHRA OVC015
      TEMPO 2319/2322 2SM TSRA OVC010CB
     FM232200 18012G20KT P6SM VCSH BKN015=



000
FTUS44 KBMX 231200 AAA
TAFEET
TAF AMD
KEET 231243Z 2313/2412 10007KT 3SM BR VCSH OVC006
     FM231500 11007KT 6SM BR VCSH OVC008
      TEMPO 2315/2318 3SM -SHRA
     FM231800 13010G18KT 5SM SHRA OVC015
      TEMPO 2319/2322 2SM TSRA OVC010CB
     FM232200 18010G18KT P6SM VCSH BKN015=



000
FTUS44 KBMX 231100
TAFANB
TAF
KANB 231131Z 2312/2412 08008G18KT P6SM VCSH OVC008
     FM231500 10012G18KT P6SM VCSH OVC008
      TEMPO 2315/2318 2SM SHRA
     FM231800 12010G18KT 5SM SHRA OVC012
     FM232000 15010G18KT 4SM SHRA VCTS OVC015CB
      TEMPO 2320/2323 2SM TSRA
     FM240100 19010KT P6SM VCSH BKN025=



000
FTUS44 KBMX 231100
TAFTOI
TAF
KTOI 231131Z 2312/2412 10008G18KT P6SM VCSH OVC005
      TEMPO 2312/2315 3SM -SHRA
     FM231500 12012G18KT 4SM SHRA OVC010
      TEMPO 2315/2318 2SM SHRA
     FM231800 17012G20KT 3SM TSRA OVC015CB
      TEMPO 2318/2321 1SM +TSRA OVC005CB
     FM232100 18010KT 5SM SHRA VCTS BKN025CB=



000
FTUS44 KBMX 231100
TAFEET
TAF
KEET 231131Z 2312/2412 10008G18KT P6SM VCSH OVC008
      TEMPO 2314/2318 3SM -SHRA
     FM231800 13010G18KT 5SM SHRA OVC015
      TEMPO 2319/2322 2SM TSRA OVC010CB
     FM232200 18010G18KT P6SM VCSH BKN015=



000
FTUS44 KBMX 231100
TAFTCL
TAF
KTCL 231131Z 2312/2412 10010G18KT P6SM VCSH OVC012
      TEMPO 2312/2314 OVC008
     FM231400 11010G18KT P6SM VCSH OVC008
      TEMPO 2315/2318 2SM SHRA
     FM231800 12012G18KT 5SM SHRA OVC015
      TEMPO 2319/2322 2SM TSRA OVC010CB
     FM232200 18012G20KT P6SM VCSH BKN015=



000
FTUS44 KBMX 231100
TAFBHM
TAF
KBHM 231131Z 2312/2412 10010G18KT P6SM VCSH OVC008
      TEMPO 2314/2318 3SM -SHRA
     FM231800 13012G18KT 5SM SHRA OVC015
      TEMPO 2319/2322 2SM TSRA OVC010CB
     FM232200 18012G20KT P6SM VCSH BKN015=



000
FTUS44 KBMX 231100
TAFMGM
TAF
KMGM 231131Z 2312/2412 09010KT P6SM VCSH OVC005
     FM231500 12012G18KT P6SM VCSH OVC008
      TEMPO 2315/2318 2SM SHRA
     FM231800 15012G20KT 4SM SHRA OVC015
      TEMPO 2318/2322 2SM TSRA BKN008CB
     FM232200 19010KT P6SM VCSH BKN025=



000
FTUS44 KBMX 231100 AAB
TAFANB
TAF AMD
KANB 231109Z 2311/2406 08008G18KT P6SM VCSH OVC008
     FM231400 11012G18KT P6SM VCSH OVC008
      TEMPO 2314/2317 2SM SHRA
     FM231700 12010G18KT 5SM SHRA OVC012
     FM232000 16010G18KT 4SM SHRA VCTS OVC015CB
      TEMPO 2320/2323 2SM TSRA
     FM240100 19010KT P6SM VCSH BKN025=



000
FTUS44 KBMX 231100 AAB
TAFTCL
TAF AMD
KTCL 231103Z 2311/2406 10008KT P6SM VCSH OVC012
      TEMPO 2311/2313 OVC008
     FM231300 12010G18KT P6SM VCSH OVC007
      TEMPO 2313/2317 2SM SHRA
     FM231700 15012G20KT 4SM SHRA VCTS OVC012CB
      TEMPO 2317/2321 2SM TSRA
     FM232100 18012G20KT P6SM VCSH OVC015=



000
FTUS44 KBMX 231000 AAB
TAFEET
TAF AMD
KEET 231059Z 2311/2406 10006KT P6SM VCSH OVC008
      TEMPO 2311/2315 4SM -SHRA
     FM231500 12012G18KT 5SM -SHRA OVC010
      TEMPO 2315/2318 2SM SHRA
     FM231800 15012G20KT 5SM SHRA VCTS OVC015CB
      TEMPO 2318/2321 2SM TSRA OVC005CB
     FM232100 19012G28KT P6SM VCSH OVC015
     FM240200 19010KT P6SM SCT250=



000
FTUS44 KBMX 231000 AAB
TAFBHM
TAF AMD
KBHM 231053Z 2311/2406 10011G18KT P6SM VCSH OVC009
     FM231400 13012G22KT 5SM -SHRA OVC007
      TEMPO 2314/2317 2SM SHRA
     FM231700 12010G18KT 5SM SHRA VCTS OVC012CB
      TEMPO 2317/2320 2SM TSRA
     FM232000 19012G22KT P6SM VCTS BKN015CB
     FM232200 19010KT P6SM VCSH BKN035=



000
FTUS44 KBMX 231000 AAB
TAFTOI
TAF AMD
KTOI 231030Z 2311/2406 10011G18KT P6SM VCSH OVC005
     FM231500 12012G18KT 4SM SHRA VCTS OVC010CB
      TEMPO 2315/2318 2SM TSRA
     FM231800 18012G20KT 3SM TSRA OVC015CB
      TEMPO 2318/2321 1SM +TSRA OVC005CB
     FM232100 18010KT 5SM SHRA VCTS BKN025CB=



000
FTUS44 KBMX 231000 AAB
TAFTOI
TAF AMD
KTOI 231030Z 2311/2406 10011G18KT P6SM VCSH OVC005
     FM231500 12012G18KT 4SM SHRA VCTS OVC010CB
      TEMPO 2315/2318 2SM TSRA
     FM231800 18012G20KT 3SM TSRA OVC015CB
      TEMPO 2318/2321 1SM +TSRA OVC005CB
     FM232100 18010KT 5SM SHRA VCTS BKN025CB=



000
FTUS44 KBMX 231000 AAB
TAFMGM
TAF AMD
KMGM 231024Z 2310/2406 09010KT P6SM VCSH OVC005
     FM231500 12012G18KT 4SM SHRA VCTS OVC010CB
      TEMPO 2315/2319 2SM TSRA
     FM231900 17015G25KT 4SM TSRA SCT007CB BKN015 OVC025
     FM240200 19010KT P6SM SCT250=



000
FTUS44 KBMX 230900 AAA
TAFTOI
TAF AMD
KTOI 230912Z 2309/2406 12011G18KT 4SM SHRA VCTS BKN006CB OVC035
      TEMPO 2315/2318 TSRA BKN007CB
     FM231800 17015G25KT 4SM TSRA SCT007CB BKN015 OVC025
     FM240200 19010KT P6SM SCT250=



000
FTUS44 KBMX 230900 AAA
TAFTCL
TAF AMD
KTCL 230910Z 2309/2406 12011G18KT P6SM VCSH OVC015
      TEMPO 2310/2312 BKN007
     FM231200 13012G22KT 6SM SHRA VCTS BKN007CB OVC030
      TEMPO 2313/2315 TSRA BKN007CB
     FM231500 17015G25KT 4SM TSRA SCT007CB BKN015 OVC025
     FM240000 19010KT P6SM SCT250=



000
FTUS44 KBMX 230900 AAA
TAFANB
TAF AMD
KANB 230909Z 2309/2406 08010KT P6SM -SHRA OVC015
      TEMPO 2310/2312 BKN007
     FM231200 13012G22KT 6SM SHRA VCTS BKN007CB OVC030
      TEMPO 2316/2318 TSRA BKN007CB
     FM231800 17015G25KT 4SM TSRA SCT007CB BKN015 OVC025
     FM240300 19010KT P6SM SCT250=



000
FTUS44 KBMX 230900 AAA
TAFBHM
TAF AMD
KBHM 230908Z 2309/2406 10011G18KT P6SM VCSH OVC015
      TEMPO 2310/2313 BKN007
     FM231300 13012G22KT 6SM SHRA VCTS BKN007CB OVC030
      TEMPO 2315/2317 TSRA BKN007CB
     FM231700 17015G25KT 4SM TSRA SCT007CB BKN015 OVC025
     FM240200 19010KT P6SM SCT250=



000
FTUS44 KBMX 230900 AAA
TAFEET
TAF AMD
KEET 230907Z 2309/2406 12006KT P6SM VCSH OVC008
     FM231300 13012G22KT 6SM SHRA VCTS BKN007CB OVC030
      TEMPO 2315/2317 TSRA BKN007CB
     FM231700 17015G25KT 4SM TSRA SCT007CB BKN015 OVC025
     FM240200 19010KT P6SM SCT250=



000
FTUS44 KBMX 230600 AAA
TAFMGM
TAF AMD
KMGM 230656Z 2307/2406 10010KT 6SM SHRA BKN015 OVC025
      TEMPO 2307/2311 BKN007
     FM231100 12011KT 4SM SHRA VCTS BKN007CB OVC035
      TEMPO 2316/2318 TSRA BKN007CB
     FM231800 17015G25KT 4SM TSRA SCT007CB BKN015 OVC025
     FM240200 19010KT P6SM SCT250=



000
FTUS44 KBMX 230500
TAFEET
TAF
KEET 230538Z 2306/2406 12006KT P6SM OVC015
     FM230800 12011G18KT P6SM -SHRA OVC015
     FM231300 13012G22KT 6SM SHRA VCTS BKN007CB OVC030
      TEMPO 2315/2317 TSRA BKN007CB
     FM231700 17015G25KT 4SM TSRA SCT007CB BKN015 OVC025
     FM240200 19010KT P6SM SCT250=



000
FTUS44 KBMX 230500
TAFBHM
TAF
KBHM 230538Z 2306/2406 12009G16KT P6SM OVC020
     FM230800 12011G18KT P6SM VCSH OVC015
     FM231300 13012G22KT 6SM SHRA VCTS BKN007CB OVC030
      TEMPO 2315/2317 TSRA BKN007CB
     FM231700 17015G25KT 4SM TSRA SCT007CB BKN015 OVC025
     FM240200 19010KT P6SM SCT250=



000
FTUS44 KBMX 230500
TAFMGM
TAF
KMGM 230538Z 2306/2406 10010KT 6SM SHRA BKN015 OVC025
     FM231200 12011KT 4SM SHRA VCTS BKN007CB OVC035
      TEMPO 2316/2318 TSRA BKN007CB
     FM231800 17015G25KT 4SM TSRA SCT007CB BKN015 OVC025
     FM240200 19010KT P6SM SCT250=



000
FTUS44 KBMX 230500
TAFTCL
TAF
KTCL 230538Z 2306/2406 11007G14KT P6SM OVC020
     FM230800 12011G18KT P6SM VCSH OVC015
     FM231200 13012G22KT 6SM SHRA VCTS BKN007CB OVC030
      TEMPO 2313/2315 TSRA BKN007CB
     FM231500 17015G25KT 4SM TSRA SCT007CB BKN015 OVC025
     FM240000 19010KT P6SM SCT250=



000
FTUS44 KBMX 230500
TAFANB
TAF
KANB 230538Z 2306/2406 10010KT P6SM -SHRA OVC020
      TEMPO 2308/2312 BKN015
     FM231200 13012G22KT 6SM SHRA VCTS BKN007CB OVC030
      TEMPO 2316/2318 TSRA BKN007CB
     FM231800 17015G25KT 4SM TSRA SCT007CB BKN015 OVC025
     FM240300 19010KT P6SM SCT250=



000
FTUS44 KBMX 230500
TAFTOI
TAF
KTOI 230538Z 2306/2406 09008KT 6SM SHRA BKN010 OVC025
      TEMPO 2306/2309 4SM SHRA BKN007
     FM230900 12011KT 4SM SHRA VCTS BKN007CB OVC035
      TEMPO 2315/2318 TSRA BKN007CB
     FM231800 17015G25KT 4SM TSRA SCT007CB BKN015 OVC025
     FM240200 19010KT P6SM SCT250=



000
FTUS44 KBMX 230300 AAA
TAFMGM
TAF AMD
KMGM 230344Z 2304/2324 10008KT P6SM -SHRA OVC025
     FM230500 10010KT P6SM SHRA BKN015 OVC025
     FM230900 12011KT 4SM TSRA BKN007CB OVC035
     FM231800 17015G25KT 4SM TSRA SCT007CB BKN015 OVC025=



000
FTUS44 KBMX 230300 AAA
TAFMGM
TAF AMD
KMGM 230344Z 2304/2324 10008KT P6SM -SHRA OVC025
     FM230500 10010KT P6SM SHRA BKN015 OVC025
     FM230900 12011KT 4SM TSRA BKN007CB OVC035
     FM231800 17015G25KT 4SM TSRA SCT007CB BKN015 OVC025=



000
FTUS44 KBMX 230300 AAA
TAFTOI
TAF AMD
KTOI 230343Z 2304/2324 09008KT P6SM SHRA OVC015
     FM230900 12011KT 4SM TSRA BKN007CB OVC035
     FM231800 17015G25KT 4SM TSRA SCT007CB BKN015 OVC025=



000
FTUS44 KBMX 222300
TAFTCL
TAF
KTCL 222339Z 2300/2324 10006KT P6SM SCT040 SCT250
     FM230200 14008KT P6SM OVC020
     FM230900 10009KT P6SM SHRA OVC015
     FM231500 12012G18KT 4SM TSRA BR BKN015 OVC030CB=



000
FTUS44 KBMX 222300
TAFEET
TAF
KEET 222339Z 2300/2324 14008KT P6SM BKN035
     FM230100 12006KT P6SM OVC020
     FM230700 11008KT P6SM SHRA OVC015
     FM231300 13012G22KT 4SM TSRA BR BKN015 OVC030CB
     FM231900 17015G25KT 4SM TSRA SCT007CB BKN015 OVC025=



000
FTUS44 KBMX 222300
TAFMGM
TAF
KMGM 222339Z 2300/2324 10008KT P6SM -SHRA OVC025
     FM230900 12011KT 4SM TSRA BKN007CB OVC035
     FM231800 17015G25KT 4SM TSRA SCT007CB BKN015 OVC025=



000
FTUS44 KBMX 222300
TAFANB
TAF
KANB 222339Z 2300/2324 10008KT P6SM SCT050 SCT250
     FM230100 08008KT P6SM OVC020
     FM230800 07010KT P6SM SHRA OVC015
     FM231500 10010G18KT 4SM RA BR OVC015=



000
FTUS44 KBMX 222300
TAFTOI
TAF
KTOI 222339Z 2300/2324 09008KT P6SM -SHRA OVC025
     FM230900 12011KT 4SM TSRA BKN007CB OVC035
     FM231800 17015G25KT 4SM TSRA SCT007CB BKN015 OVC025=



000
FTUS44 KBMX 222300
TAFBHM
TAF
KBHM 222339Z 2300/2324 11009KT P6SM SCT050 SCT250
     FM230100 12009G16KT P6SM OVC020
     FM230800 12011G18KT P6SM SHRA OVC015
     FM231300 13012G22KT 4SM TSRA BKN007CB OVC030CB
     FM231900 17015G25KT 4SM TSRA SCT007CB BKN015 OVC025=



000
FTUS44 KBMX 221700 RRA
TAFEET
TAF
KEET 221743Z 2218/2318 14008KT P6SM SCT250
     FM230100 12006KT P6SM OVC020
     FM230800 11008KT P6SM SHRA OVC015
     FM231600 13012G22KT 4SM TSRA BR BKN015 OVC030CB=



000
FTUS44 KBMX 221700 RRA
TAFANB
TAF
KANB 221743Z 2218/2318 10008KT P6SM SCT250
     FM230100 08008KT P6SM OVC020
     FM230800 07010KT P6SM SHRA OVC015
     FM231500 10010G18KT 4SM RA BR OVC015=



000
FTUS44 KBMX 221700 RRA
TAFMGM
TAF
KMGM 221743Z 2218/2318 10013KT P6SM BKN250
     FM230000 09008KT P6SM SHRA OVC020
     FM230900 10011KT 4SM TSRA BKN020 OVC035CB
     FM231600 13015G25KT 4SM TSRA BKN020 OVC035CB=



000
FTUS44 KBMX 221700 RRA
TAFTCL
TAF
KTCL 221743Z 2218/2318 14010KT P6SM SCT250
     FM230300 14008KT P6SM OVC020
     FM230900 10009KT P6SM SHRA OVC015
     FM231500 12012G18KT 4SM TSRA BR BKN015 OVC030CB=



000
FTUS44 KBMX 221700 RRA
TAFTOI
TAF
KTOI 221743Z 2218/2318 11009KT P6SM SCT050 BKN250
     FM222300 09008KT P6SM SHRA OVC020
     FM230800 10010KT 4SM TSRA BKN020 OVC035CB
     FM231600 13015G25KT 4SM TSRA BKN020 OVC035CB=



000
FTUS44 KBMX 221700 RRA
TAFBHM
TAF
KBHM 221743Z 2218/2318 11009KT P6SM SCT250
     FM230200 12009G16KT P6SM OVC020
     FM230900 12011G18KT P6SM SHRA OVC015
     FM231600 13012G22KT 4SM TSRA BR BKN015 OVC030CB=



000
FTUS44 KBMX 221100
TAFTCL
TAF
KTCL 221140Z 2212/2312 35003KT P6SM SCT250
     FM221900 15009KT P6SM BKN035
     FM222000 13006KT P6SM BKN025 BKN150
     FM230300 14008KT P6SM OVC020
     FM230900 10009KT P6SM SHRA OVC020=



000
FTUS44 KBMX 221100
TAFBHM
TAF
KBHM 221140Z 2212/2312 08006KT P6SM SCT250
     FM221900 14008KT P6SM BKN035
     FM222200 12007KT P6SM BKN025 BKN150
     FM230300 13009KT P6SM OVC020
     FM230900 11011KT P6SM SHRA OVC020=



000
FTUS44 KBMX 221100
TAFMGM
TAF
KMGM 221140Z 2212/2312 07004KT P6SM SCT050
     FM221400 08007KT P6SM BKN050
     FM221600 11010KT P6SM BKN025 BKN150
     FM230300 09008KT P6SM SHRA OVC020
     FM230900 10011KT 4SM TSRA BKN020 OVC035CB=



000
FTUS44 KBMX 221100
TAFEET
TAF
KEET 221140Z 2212/2312 07003KT P6SM SCT250
     FM221800 14007KT P6SM BKN035
     FM222100 13005KT P6SM BKN025 BKN150
     FM230200 12006KT P6SM OVC020
     FM230800 13010KT P6SM SHRA OVC020=



000
FTUS44 KBMX 221100
TAFANB
TAF
KANB 221140Z 2212/2312 04003KT P6SM SCT250
     FM221800 10007KT P6SM BKN050
     FM222100 11006KT P6SM BKN025 BKN150
     FM230200 08007KT P6SM OVC020
     FM230800 07010KT P6SM SHRA OVC020=



000
FTUS44 KBMX 221100
TAFTOI
TAF
KTOI 221140Z 2212/2312 00000KT P6SM BKN050
     FM221500 10010KT P6SM BKN025 BKN150
     FM230000 08008KT P6SM SHRA OVC020
     FM230700 10010KT 4SM TSRA BKN020 OVC035CB=



000
FTUS44 KBMX 220500
TAFMGM
TAF
KMGM 220533Z 2206/2306 00000KT P6SM SKC
     FM221400 07006KT P6SM BKN050
     FM221600 11010KT P6SM BKN025
     FM230300 09008KT 5SM -RA BKN020=



000
FTUS44 KBMX 220500
TAFEET
TAF
KEET 220533Z 2206/2306 VRB03KT P6SM FEW100 SCT250
     FM221700 11007KT P6SM BKN035
     FM222100 11007KT P6SM BKN025=



000
FTUS44 KBMX 220500
TAFANB
TAF
KANB 220533Z 2206/2306 VRB03KT P6SM FEW100 SCT250
     FM221800 11007KT P6SM BKN050
     FM222200 11007KT P6SM BKN025=



000
FTUS44 KBMX 220500
TAFBHM
TAF
KBHM 220533Z 2206/2306 VRB03KT P6SM SCT100 SCT250
     FM221700 11007KT P6SM BKN035
     FM222100 11007KT P6SM BKN025=



000
FTUS44 KBMX 220500
TAFTOI
TAF
KTOI 220533Z 2206/2306 00000KT P6SM SKC
     FM221300 07006KT P6SM BKN050
     FM221500 10010KT P6SM OVC025
     FM230200 09008KT 5SM -RA BKN020=



000
FTUS44 KBMX 220500
TAFTCL
TAF
KTCL 220533Z 2206/2306 VRB03KT P6SM FEW100 SCT250
     FM221600 12007KT P6SM BKN035
     FM222000 11007KT P6SM BKN025
     FM230500 13008KT 5SM -RA BKN020=



000
FTUS44 KBMX 212300 RRA
TAFBHM
TAF
KBHM 212346Z 2200/2224 VRB03KT P6SM SKC
     FM220600 VRB03KT P6SM SCT250
     FM221600 11007KT P6SM BKN050=



000
FTUS44 KBMX 212300 RRA
TAFEET
TAF
KEET 212346Z 2200/2224 00000KT P6SM SKC
     FM220600 VRB03KT P6SM SCT250
     FM221600 11007KT P6SM BKN050=



000
FTUS44 KBMX 212300 RRA
TAFANB
TAF
KANB 212346Z 2200/2224 00000KT P6SM SKC
     FM220600 VRB03KT P6SM SCT250
     FM221600 11007KT P6SM BKN050=



000
FTUS44 KBMX 212300 RRA
TAFTOI
TAF
KTOI 212346Z 2200/2224 00000KT P6SM SKC
     FM221400 09008KT P6SM BKN025
     FM221800 10008KT P6SM OVC015
     FM222100 09007KT P6SM BKN050=



000
FTUS44 KBMX 212300 RRA
TAFTCL
TAF
KTCL 212346Z 2200/2224 00000KT P6SM SKC
     FM220400 00000KT P6SM SCT250
     FM221600 12007KT P6SM BKN050=



000
FTUS44 KBMX 212300 RRA
TAFMGM
TAF
KMGM 212346Z 2200/2224 00000KT P6SM SKC
     FM221500 09008KT P6SM BKN050
     FM221800 11009KT P6SM BKN025
     FM222100 10007KT P6SM OVC050=



000
FTUS44 KBMX 211800 AAA
TAFBHM
TAF AMD
KBHM 211820Z 2118/2218 09007KT 6SM FU FEW010 BKN150
     FM220100 11003KT P6SM BKN150
     FM221500 11007KT P6SM SCT150=



000
FTUS44 KBMX 211700
TAFTCL
TAF
KTCL 211720Z 2118/2218 10007KT P6SM BKN150
     FM220300 11003KT P6SM BKN150
     FM221500 12007KT P6SM SCT050 BKN150=



000
FTUS44 KBMX 211700
TAFANB
TAF
KANB 211720Z 2118/2218 07006KT P6SM BKN150
     FM220300 06003KT P6SM SCT150
     FM221500 08007KT P6SM SCT150=



000
FTUS44 KBMX 211700
TAFTOI
TAF
KTOI 211720Z 2118/2218 07008KT P6SM SCT250
     FM220300 09003KT P6SM SKC
     FM221500 10008KT P6SM BKN050=



000
FTUS44 KBMX 211700
TAFBHM
TAF
KBHM 211720Z 2118/2218 09007KT P6SM BKN150
     FM220300 11003KT P6SM BKN150
     FM221500 11007KT P6SM SCT150=



000
FTUS44 KBMX 211700
TAFEET
TAF
KEET 211720Z 2118/2218 09006KT P6SM BKN150
     FM220000 00000KT P6SM BKN150
     FM221500 11007KT P6SM SCT150=



000
FTUS44 KBMX 211700
TAFMGM
TAF
KMGM 211720Z 2118/2218 07008KT P6SM SCT250
     FM220300 08004KT P6SM SKC
     FM221500 09008KT P6SM BKN050=



000
FTUS44 KBMX 211100
TAFBHM
TAF
KBHM 211125Z 2112/2212 VRB03KT P6SM BKN060
     FM211600 10007KT P6SM BKN150
     FM220300 11003KT P6SM BKN150=



000
FTUS44 KBMX 211100
TAFTCL
TAF
KTCL 211125Z 2112/2212 00000KT 6SM BR BKN060
     FM211500 10007KT P6SM BKN150
     FM220300 11003KT P6SM BKN150=



000
FTUS44 KBMX 211100
TAFMGM
TAF
KMGM 211125Z 2112/2212 00000KT 6SM BR SCT002 BKN060
      TEMPO 2112/2113 2SM BR
     FM211500 08005KT P6SM SCT150
     FM211800 07008KT P6SM SCT250
     FM220300 08004KT P6SM SKC=



000
FTUS44 KBMX 211100
TAFEET
TAF
KEET 211125Z 2112/2212 00000KT P6SM BKN060
     FM211600 09006KT P6SM BKN150
     FM220000 00000KT P6SM BKN150=



000
FTUS44 KBMX 211100
TAFANB
TAF
KANB 211125Z 2112/2212 00000KT P6SM BKN060
     FM211600 07006KT P6SM BKN150
     FM220300 06003KT P6SM SCT150=



000
FTUS44 KBMX 211100
TAFTOI
TAF
KTOI 211125Z 2112/2212 00000KT 4SM BR SKC
     FM211500 08005KT P6SM SCT150
     FM211800 07008KT P6SM SCT250
     FM220300 09003KT P6SM SKC=



000
FTUS44 KBMX 211100 AAB
TAFTCL
TAF AMD
KTCL 211100Z 2111/2206 00000KT 6SM BR SCT080
      TEMPO 2111/2113 3SM BR
     FM211500 10006KT P6SM BKN150=



000
FTUS44 KBMX 211000 AAA
TAFMGM
TAF AMD
KMGM 211025Z 2110/2206 00000KT 6SM BR BKN060
      TEMPO 2110/2113 1SM BR
     FM211500 08005KT P6SM SCT200=



000
FTUS44 KBMX 210800 AAA
TAFTCL
TAF AMD
KTCL 210855Z 2109/2206 00000KT 3SM BR SCT080
      TEMPO 2109/2112 1SM BR
     FM211500 10006KT P6SM BKN150=



    US Dept of Commerce
    National Oceanic and Atmospheric Administration
    National Weather Service
    1325 East West Highway
    Silver Spring, MD 20910
    Page Author: NWS Internet Services Team
Disclaimer
Information Quality
Credits
Glossary
Privacy Policy
Freedom of Information Act (FOIA)
About Us
Career Opportunities